createdAt,value
2023-02-27T00:00:14.960Z,17.15
2023-02-27T00:02:46.590Z,21.15
2023-02-27T00:05:13.831Z,29.77
2023-02-27T00:07:41.278Z,20.42
2023-02-27T00:10:10.037Z,22.65
2023-02-27T00:12:38.526Z,13.73
2023-02-27T00:15:16.955Z,17.60
2023-02-27T00:17:44.178Z,29.52
2023-02-27T00:20:14.138Z,21.92
2023-02-27T00:22:41.916Z,24.35
2023-02-27T00:25:09.843Z,23.38
2023-02-27T00:27:37.154Z,20.05
2023-02-27T00:30:06.000Z,32.65
2023-02-27T00:32:33.348Z,22.17
2023-02-27T00:35:01.270Z,25.63
2023-02-27T00:37:28.430Z,31.73
2023-02-27T00:39:55.418Z,20.20
2023-02-27T00:42:22.422Z,21.70
2023-02-27T00:44:49.215Z,42.80
2023-02-27T00:47:16.326Z,29.52
2023-02-27T00:49:43.215Z,31.33
2023-02-27T00:52:10.117Z,29.65
2023-02-27T00:54:37.055Z,20.13
2023-02-27T00:57:04.013Z,37.20
2023-02-27T00:59:30.999Z,26.42
2023-02-27T01:01:58.248Z,30.42
2023-02-27T01:04:28.112Z,24.00
2023-02-27T01:06:54.933Z,20.58
2023-02-27T01:09:22.082Z,14.20
2023-02-27T01:11:48.964Z,19.80
2023-02-27T01:14:15.778Z,22.40
2023-02-27T01:16:45.653Z,23.60
2023-02-27T01:19:12.524Z,16.92
2023-02-27T01:21:42.090Z,17.05
2023-02-27T01:24:09.979Z,21.58
2023-02-27T01:26:37.214Z,15.82
2023-02-27T01:29:06.329Z,13.15
2023-02-27T01:31:33.697Z,14.05
2023-02-27T01:34:00.609Z,15.43
2023-02-27T01:36:27.540Z,12.68
2023-02-27T01:38:54.483Z,18.98
2023-02-27T01:41:21.330Z,17.88
2023-02-27T01:44:03.100Z,19.40
2023-02-27T01:46:31.080Z,18.63
2023-02-27T01:49:04.176Z,24.27
2023-02-27T01:51:34.593Z,22.48
2023-02-27T01:54:03.684Z,15.60
2023-02-27T01:56:32.474Z,15.05
2023-02-27T01:59:06.306Z,19.27
2023-02-27T02:01:34.963Z,21.20
2023-02-27T02:04:22.592Z,22.48
2023-02-27T02:06:54.594Z,35.90
2023-02-27T02:09:22.416Z,25.23
2023-02-27T02:11:49.551Z,51.58
2023-02-27T02:14:18.039Z,20.27
2023-02-27T02:17:03.168Z,22.73
2023-02-27T02:19:51.513Z,34.35
2023-02-27T02:22:36.534Z,21.02
2023-02-27T02:25:28.358Z,21.35
2023-02-27T02:28:13.835Z,37.35
2023-02-27T02:30:59.409Z,25.40
2023-02-27T02:33:26.148Z,15.20
2023-02-27T02:36:30.567Z,17.80
2023-02-27T02:39:09.211Z,23.05
2023-02-27T02:41:45.272Z,18.83
2023-02-27T02:44:14.976Z,22.45
2023-02-27T02:47:02.263Z,24.23
2023-02-27T02:49:41.074Z,29.98
2023-02-27T02:52:10.836Z,15.15
2023-02-27T02:54:54.547Z,26.52
2023-02-27T02:57:31.323Z,13.60
2023-02-27T03:00:15.598Z,16.20
2023-02-27T03:02:51.480Z,24.70
2023-02-27T03:05:34.744Z,17.08
2023-02-27T03:08:07.167Z,26.75
2023-02-27T03:10:36.391Z,20.73
2023-02-27T03:13:12.302Z,24.13
2023-02-27T03:15:48.273Z,20.80
2023-02-27T03:18:20.873Z,27.67
2023-02-27T03:20:56.028Z,21.63
2023-02-27T03:23:51.853Z,20.33
2023-02-27T03:26:23.262Z,26.27
2023-02-27T03:29:04.350Z,10.63
2023-02-27T03:31:52.476Z,22.83
2023-02-27T03:34:29.218Z,17.98
2023-02-27T03:37:39.629Z,26.17
2023-02-27T03:40:25.818Z,18.52
2023-02-27T03:43:07.849Z,23.00
2023-02-27T03:46:02.215Z,26.90
2023-02-27T03:48:29.600Z,39.17
2023-02-27T03:50:56.884Z,24.73
2023-02-27T03:53:40.054Z,30.15
2023-02-27T03:56:09.151Z,20.63
2023-02-27T03:58:36.366Z,28.02
2023-02-27T04:01:03.226Z,31.58
2023-02-27T04:03:34.421Z,27.60
2023-02-27T04:06:21.746Z,38.70
2023-02-27T04:09:03.394Z,22.83
2023-02-27T04:14:24.809Z,28.60
2023-02-27T04:17:10.300Z,23.08
2023-02-27T04:19:49.290Z,33.42
2023-02-27T04:22:28.110Z,32.88
2023-02-27T04:25:16.866Z,27.90
2023-02-27T04:27:49.701Z,38.92
2023-02-27T04:30:28.672Z,18.17
2023-02-27T04:33:10.952Z,24.83
2023-02-27T04:35:51.072Z,25.50
2023-02-27T04:38:51.612Z,33.05
2023-02-27T04:41:22.328Z,29.10
2023-02-27T04:43:52.050Z,32.00
2023-02-27T04:46:22.700Z,34.28
2023-02-27T04:49:08.928Z,30.80
2023-02-27T04:51:44.877Z,30.95
2023-02-27T04:54:16.462Z,35.55
2023-02-27T04:56:53.507Z,24.02
2023-02-27T04:59:28.482Z,28.30
2023-02-27T05:02:30.543Z,33.53
2023-02-27T05:05:01.412Z,32.15
2023-02-27T05:07:37.565Z,25.88
2023-02-27T05:10:08.325Z,34.55
2023-02-27T05:12:46.411Z,36.88
2023-02-27T05:15:25.586Z,24.17
2023-02-27T05:18:13.615Z,32.90
2023-02-27T05:20:54.052Z,19.52
2023-02-27T05:23:45.853Z,26.70
2023-02-27T05:28:46.785Z,34.67
2023-02-27T05:31:35.099Z,30.67
2023-02-27T05:34:22.620Z,23.75
2023-02-27T05:37:14.156Z,22.63
2023-02-27T05:39:42.996Z,13.23
2023-02-27T05:42:19.846Z,22.40
2023-02-27T05:44:54.895Z,17.30
2023-02-27T05:47:25.533Z,16.20
2023-02-27T05:50:02.144Z,19.30
2023-02-27T05:52:30.943Z,17.85
2023-02-27T05:55:24.550Z,16.70
2023-02-27T05:57:59.982Z,13.32
2023-02-27T06:00:39.188Z,18.50
2023-02-27T06:03:06.295Z,15.60
2023-02-27T06:05:33.774Z,16.55
2023-02-27T06:08:00.905Z,15.27
2023-02-27T06:10:27.984Z,14.35
2023-02-27T06:12:54.801Z,16.05
2023-02-27T06:15:23.061Z,12.77
2023-02-27T06:17:49.890Z,17.02
2023-02-27T06:20:16.960Z,15.13
2023-02-27T06:22:43.810Z,13.13
2023-02-27T06:25:10.674Z,11.43
2023-02-27T06:27:37.761Z,13.15
2023-02-27T06:30:07.462Z,12.70
2023-02-27T06:32:34.630Z,12.45
2023-02-27T06:35:01.694Z,15.07
2023-02-27T06:37:28.466Z,11.65
2023-02-27T06:39:55.285Z,17.05
2023-02-27T06:42:22.057Z,12.20
2023-02-27T06:44:48.893Z,18.48
2023-02-27T06:47:15.803Z,14.00
2023-02-27T06:49:42.603Z,10.80
2023-02-27T06:52:09.360Z,14.55
2023-02-27T06:54:36.150Z,18.58
2023-02-27T06:57:02.955Z,14.40
2023-02-27T06:59:29.725Z,13.25
2023-02-27T07:01:56.536Z,12.95
2023-02-27T07:04:23.403Z,13.57
2023-02-27T07:07:35.533Z,14.40
2023-02-27T07:09:37.334Z,17.50
2023-02-27T07:12:05.391Z,18.23
2023-02-27T07:14:32.565Z,16.70
2023-02-27T07:17:03.318Z,13.02
2023-02-27T07:19:35.953Z,14.27
2023-02-27T07:22:03.755Z,14.75
2023-02-27T07:24:30.471Z,15.55
2023-02-27T07:26:57.296Z,12.77
2023-02-27T07:29:24.067Z,14.35
2023-02-27T07:31:50.961Z,16.60
2023-02-27T07:34:17.920Z,15.88
2023-02-27T07:36:44.807Z,13.50
2023-02-27T07:39:14.910Z,15.27
2023-02-27T07:41:41.746Z,12.35
2023-02-27T07:44:16.420Z,14.18
2023-02-27T07:46:44.741Z,13.82
2023-02-27T07:49:11.735Z,10.82
2023-02-27T07:51:38.675Z,14.25
2023-02-27T07:54:05.491Z,13.60
2023-02-27T07:56:32.361Z,13.23
2023-02-27T07:58:59.232Z,14.70
2023-02-27T08:01:26.015Z,12.13
2023-02-27T08:03:53.134Z,14.52
2023-02-27T08:06:20.049Z,14.52
2023-02-27T08:08:46.884Z,18.05
2023-02-27T08:11:13.728Z,15.75
2023-02-27T08:14:00.571Z,14.90
2023-02-27T08:16:27.699Z,14.40
2023-02-27T08:18:54.682Z,12.57
2023-02-27T08:21:21.764Z,13.43
2023-02-27T08:23:48.641Z,16.65
2023-02-27T08:26:15.564Z,16.13
2023-02-27T08:28:42.787Z,16.17
2023-02-27T08:31:09.671Z,16.23
2023-02-27T08:33:36.477Z,14.52
2023-02-27T08:36:03.516Z,14.75
2023-02-27T08:38:30.403Z,14.82
2023-02-27T08:40:57.303Z,13.88
2023-02-27T08:43:24.252Z,17.48
2023-02-27T08:45:51.770Z,13.52
2023-02-27T08:48:18.829Z,15.05
2023-02-27T08:50:46.931Z,15.05
2023-02-27T08:53:14.098Z,14.95
2023-02-27T08:55:41.303Z,14.48
2023-02-27T08:58:08.630Z,17.50
2023-02-27T09:00:35.891Z,13.82
2023-02-27T09:03:02.780Z,13.40
2023-02-27T09:05:29.603Z,14.77
2023-02-27T09:07:56.360Z,15.05
2023-02-27T09:10:23.207Z,16.75
2023-02-27T09:12:50.061Z,16.60
2023-02-27T09:15:17.231Z,14.85
2023-02-27T09:17:44.213Z,14.30
2023-02-27T09:20:12.218Z,15.43
2023-02-27T09:22:39.466Z,14.50
2023-02-27T09:25:06.967Z,17.05
2023-02-27T09:27:34.728Z,16.70
2023-02-27T09:30:01.690Z,16.02
2023-02-27T09:32:28.843Z,14.00
2023-02-27T09:34:55.777Z,15.50
2023-02-27T09:37:25.039Z,17.45
2023-02-27T09:39:52.010Z,14.85
2023-02-27T09:42:25.586Z,16.45
2023-02-27T09:44:56.223Z,14.15
2023-02-27T09:47:25.995Z,18.77
2023-02-27T09:50:06.462Z,12.65
2023-02-27T09:52:36.463Z,15.90
2023-02-27T09:55:08.332Z,13.25
2023-02-27T09:57:56.474Z,10.80
2023-02-27T10:00:25.909Z,11.77
2023-02-27T10:03:10.287Z,11.43
2023-02-27T10:05:48.023Z,11.90
2023-02-27T10:08:41.619Z,11.65
2023-02-27T10:11:14.803Z,11.13
2023-02-27T10:13:56.324Z,14.43
2023-02-27T10:19:01.626Z,9.80
2023-02-27T10:21:36.996Z,11.05
2023-02-27T10:24:31.703Z,14.77
2023-02-27T10:27:01.387Z,13.50
2023-02-27T10:29:30.116Z,10.98
2023-02-27T10:32:06.783Z,12.10
2023-02-27T10:34:34.873Z,9.88
2023-02-27T10:37:05.445Z,10.80
2023-02-27T10:39:54.310Z,9.37
2023-02-27T10:42:24.240Z,11.75
2023-02-27T10:45:16.367Z,9.93
2023-02-27T10:47:44.201Z,10.70
2023-02-27T10:50:44.691Z,13.75
2023-02-27T10:53:37.843Z,11.20
2023-02-27T10:56:08.477Z,9.07
2023-02-27T10:58:37.240Z,8.93
2023-02-27T11:01:12.964Z,9.70
2023-02-27T11:03:43.110Z,10.55
2023-02-27T11:06:24.702Z,8.00
2023-02-27T11:11:37.969Z,8.98
2023-02-27T11:14:28.082Z,9.57
2023-02-27T11:16:57.745Z,10.75
2023-02-27T11:19:29.947Z,9.57
2023-02-27T11:22:16.308Z,11.25
2023-02-27T11:24:43.359Z,8.88
2023-02-27T11:27:29.081Z,8.93
2023-02-27T11:30:00.364Z,8.70
2023-02-27T11:32:37.268Z,9.40
2023-02-27T11:35:05.667Z,8.32
2023-02-27T11:37:36.798Z,8.60
2023-02-27T11:40:15.600Z,8.75
2023-02-27T11:42:47.600Z,8.40
2023-02-27T11:46:04.860Z,7.65
2023-02-27T11:49:02.986Z,7.82
2023-02-27T11:51:32.951Z,8.30
2023-02-27T11:54:30.020Z,8.10
2023-02-27T11:57:04.375Z,10.52
2023-02-27T11:59:47.962Z,8.02
2023-02-27T12:02:22.524Z,8.13
2023-02-27T12:04:55.459Z,8.20
2023-02-27T12:07:28.073Z,7.63
2023-02-27T12:10:04.703Z,7.88
2023-02-27T12:12:40.974Z,7.43
2023-02-27T12:15:30.089Z,8.90
2023-02-27T12:18:05.441Z,8.60
2023-02-27T12:20:37.920Z,7.00
2023-02-27T12:23:31.493Z,8.73
2023-02-27T12:26:08.399Z,9.48
2023-02-27T12:29:04.875Z,7.90
2023-02-27T12:31:36.422Z,9.65
2023-02-27T12:34:15.099Z,8.15
2023-02-27T12:36:42.115Z,11.77
2023-02-27T12:39:23.766Z,7.88
2023-02-27T12:42:18.735Z,8.30
2023-02-27T12:45:17.034Z,7.57
2023-02-27T12:47:55.810Z,7.38
2023-02-27T12:50:25.517Z,6.90
2023-02-27T12:53:23.361Z,8.18
2023-02-27T12:55:59.794Z,8.10
2023-02-27T12:58:40.345Z,7.20
2023-02-27T13:01:26.646Z,6.55
2023-02-27T13:04:16.964Z,6.35
2023-02-27T13:06:55.489Z,5.78
2023-02-27T13:09:32.610Z,6.30
2023-02-27T13:12:21.122Z,6.00
2023-02-27T13:14:55.406Z,5.35
2023-02-27T13:17:37.752Z,5.75
2023-02-27T13:20:40.178Z,5.28
2023-02-27T13:23:24.460Z,6.32
2023-02-27T13:25:54.984Z,5.18
2023-02-27T13:28:28.090Z,5.63
2023-02-27T13:31:12.687Z,4.88
2023-02-27T13:33:45.545Z,8.07
2023-02-27T13:36:39.119Z,9.48
2023-02-27T13:39:40.946Z,6.93
2023-02-27T13:42:26.561Z,8.70
2023-02-27T13:44:58.933Z,7.57
2023-02-27T13:47:48.837Z,8.55
2023-02-27T13:50:18.749Z,8.88
2023-02-27T13:52:46.981Z,9.73
2023-02-27T13:55:34.877Z,10.20
2023-02-27T13:58:03.931Z,13.30
2023-02-27T14:00:34.164Z,13.77
2023-02-27T14:03:32.193Z,18.92
2023-02-27T14:06:03.788Z,9.43
2023-02-27T14:08:46.950Z,9.57
2023-02-27T14:11:22.781Z,10.18
2023-02-27T14:13:54.680Z,10.57
2023-02-27T14:16:44.107Z,8.88
2023-02-27T14:19:17.271Z,10.00
2023-02-27T14:21:54.459Z,10.02
2023-02-27T14:25:01.088Z,11.82
2023-02-27T14:27:39.341Z,15.38
2023-02-27T14:30:10.158Z,13.18
2023-02-27T14:32:37.959Z,9.10
2023-02-27T14:35:06.602Z,13.02
2023-02-27T14:37:36.433Z,9.35
2023-02-27T14:40:06.284Z,9.07
2023-02-27T14:42:51.228Z,9.02
2023-02-27T14:45:25.161Z,11.38
2023-02-27T14:47:53.194Z,21.85
2023-02-27T14:50:34.154Z,8.13
2023-02-27T14:53:06.990Z,13.90
2023-02-27T14:55:35.981Z,8.15
2023-02-27T14:58:19.076Z,8.35
2023-02-27T15:01:02.035Z,15.52
2023-02-27T15:03:59.275Z,14.70
2023-02-27T15:06:42.813Z,11.45
2023-02-27T15:09:23.930Z,7.22
2023-02-27T15:12:03.605Z,11.40
2023-02-27T15:14:37.621Z,8.23
2023-02-27T15:17:14.816Z,10.90
2023-02-27T15:19:51.273Z,8.40
2023-02-27T15:22:37.675Z,7.93
2023-02-27T15:25:08.096Z,8.02
2023-02-27T15:27:37.630Z,10.98
2023-02-27T15:30:05.267Z,47.95
2023-02-27T15:32:35.861Z,9.38
2023-02-27T15:35:12.666Z,11.37
2023-02-27T15:37:40.381Z,12.13
2023-02-27T15:40:16.493Z,10.48
2023-02-27T15:42:44.751Z,9.35
2023-02-27T15:45:19.867Z,7.82
2023-02-27T15:47:47.621Z,9.55
2023-02-27T15:50:17.278Z,10.02
2023-02-27T15:52:52.702Z,14.05
2023-02-27T15:55:27.398Z,12.57
2023-02-27T15:58:02.811Z,22.95
2023-02-27T16:00:34.308Z,25.50
2023-02-27T16:03:01.402Z,43.25
2023-02-27T16:05:34.628Z,83.70
2023-02-27T16:08:02.946Z,92.68
2023-02-27T16:10:37.824Z,32.85
2023-02-27T16:13:41.202Z,46.40
2023-02-27T16:16:35.409Z,37.72
2023-02-27T16:19:28.213Z,12.32
2023-02-27T16:22:07.201Z,18.02
2023-02-27T16:24:34.269Z,12.18
2023-02-27T16:27:01.944Z,11.02
2023-02-27T16:29:34.530Z,9.45
2023-02-27T16:32:01.923Z,14.43
2023-02-27T16:34:44.608Z,11.23
2023-02-27T16:37:24.764Z,13.00
2023-02-27T16:39:52.366Z,12.63
2023-02-27T16:42:19.370Z,10.43
2023-02-27T16:44:46.463Z,9.20
2023-02-27T16:47:13.399Z,11.38
2023-02-27T16:49:40.565Z,12.77
2023-02-27T16:52:11.061Z,10.88
2023-02-27T16:54:37.993Z,13.03
2023-02-27T16:57:05.140Z,14.88
2023-02-27T16:59:39.181Z,17.38
2023-02-27T17:02:11.230Z,23.30
2023-02-27T17:04:38.049Z,29.23
2023-02-27T17:07:06.654Z,30.88
2023-02-27T17:09:33.631Z,24.65
2023-02-27T17:12:00.434Z,19.58
2023-02-27T17:14:27.347Z,21.15
2023-02-27T17:16:54.214Z,16.98
2023-02-27T17:19:22.263Z,16.55
2023-02-27T17:21:49.283Z,15.70
2023-02-27T17:24:16.346Z,27.15
2023-02-27T17:26:43.303Z,16.77
2023-02-27T17:29:10.253Z,15.85
2023-02-27T17:31:37.200Z,18.98
2023-02-27T17:34:05.545Z,19.60
2023-02-27T17:36:32.536Z,22.50
2023-02-27T17:39:02.830Z,25.02
2023-02-27T17:41:31.521Z,27.42
2023-02-27T17:43:59.574Z,24.40
2023-02-27T17:46:28.378Z,21.42
2023-02-27T17:49:00.021Z,23.90
2023-02-27T17:53:55.456Z,31.17
2023-02-27T17:56:22.384Z,36.17
2023-02-27T17:58:49.601Z,28.90
2023-02-27T18:01:21.554Z,40.35
2023-02-27T18:03:49.485Z,24.05
2023-02-27T18:06:17.083Z,32.58
2023-02-27T18:08:44.192Z,26.85
2023-02-27T18:11:12.851Z,33.97
2023-02-27T18:13:40.793Z,35.50
2023-02-27T18:22:33.662Z,39.00
2023-02-27T18:25:01.041Z,31.55
2023-02-27T18:27:28.180Z,34.03
2023-02-27T18:29:57.739Z,33.15
2023-02-27T18:32:25.070Z,30.65
2023-02-27T18:34:53.507Z,37.75
2023-02-27T18:37:20.595Z,33.25
2023-02-27T18:39:47.846Z,33.28
2023-02-27T18:42:14.603Z,35.22
2023-02-27T18:44:42.175Z,35.70
2023-02-27T18:47:09.772Z,32.28
2023-02-27T18:49:36.786Z,37.85
2023-02-27T18:52:04.033Z,32.60
2023-02-27T18:54:31.063Z,30.65
2023-02-27T18:56:57.856Z,26.75
2023-02-27T18:59:24.912Z,27.10
2023-02-27T19:01:51.772Z,27.23
2023-02-27T19:04:18.660Z,36.65
2023-02-27T19:06:45.683Z,30.35
2023-02-27T19:09:16.257Z,34.97
2023-02-27T19:11:47.236Z,30.35
2023-02-27T19:14:16.080Z,35.20
2023-02-27T19:16:43.474Z,32.85
2023-02-27T19:19:12.034Z,28.00
2023-02-27T19:21:39.591Z,26.95
2023-02-27T19:24:07.663Z,30.42
2023-02-27T19:26:34.817Z,29.92
2023-02-27T19:29:02.135Z,25.38
2023-02-27T19:31:29.158Z,26.00
2023-02-27T19:33:56.335Z,26.55
2023-02-27T19:36:25.305Z,34.15
2023-02-27T19:38:52.829Z,30.70
2023-02-27T19:41:20.794Z,29.15
2023-02-27T19:43:48.744Z,32.15
2023-02-27T19:46:18.783Z,25.98
2023-02-27T19:48:46.548Z,25.30
2023-02-27T19:51:14.820Z,29.50
2023-02-27T19:53:45.858Z,31.77
2023-02-27T19:56:17.510Z,35.97
2023-02-27T19:58:45.936Z,26.58
2023-02-27T20:01:12.939Z,32.90
2023-02-27T20:03:43.751Z,31.60
2023-02-27T20:08:49.028Z,28.40
2023-02-27T20:11:17.593Z,30.17
2023-02-27T20:13:45.212Z,30.13
2023-02-27T20:16:14.767Z,27.17
2023-02-27T20:18:42.762Z,30.77
2023-02-27T20:21:16.528Z,41.83
2023-02-27T20:23:46.287Z,36.30
2023-02-27T20:26:17.073Z,28.17
2023-02-27T20:28:45.098Z,25.90
2023-02-27T20:31:13.138Z,33.80
2023-02-27T20:33:41.026Z,30.58
2023-02-27T20:36:10.116Z,39.75
2023-02-27T20:38:39.219Z,30.65
2023-02-27T20:41:07.945Z,29.77
2023-02-27T20:43:37.644Z,30.23
2023-02-27T20:46:07.379Z,30.17
2023-02-27T20:48:34.671Z,31.23
2023-02-27T20:51:06.434Z,27.20
2023-02-27T20:53:35.344Z,28.92
2023-02-27T20:56:02.340Z,30.00
2023-02-27T20:58:29.371Z,32.35
2023-02-27T21:00:56.187Z,27.98
2023-02-27T21:03:23.226Z,25.45
2023-02-27T21:05:51.407Z,28.13
2023-02-27T21:08:18.838Z,27.77
2023-02-27T21:10:51.053Z,30.10
2023-02-27T21:13:18.853Z,29.33
2023-02-27T21:15:46.516Z,25.20
2023-02-27T21:18:13.752Z,27.00
2023-02-27T21:20:44.732Z,25.92
2023-02-27T21:23:12.178Z,22.85
2023-02-27T21:25:43.183Z,28.65
2023-02-27T21:28:11.148Z,24.98
2023-02-27T21:30:38.167Z,23.50
2023-02-27T21:33:05.334Z,26.45
2023-02-27T21:35:32.464Z,24.02
2023-02-27T21:37:59.724Z,30.27
2023-02-27T21:40:26.535Z,27.27
2023-02-27T21:42:53.785Z,28.25
2023-02-27T21:45:21.218Z,24.33
2023-02-27T21:47:48.517Z,24.63
2023-02-27T21:50:15.528Z,16.00
2023-02-27T21:52:43.460Z,22.70
2023-02-27T21:55:11.552Z,18.48
2023-02-27T21:57:40.171Z,17.13
2023-02-27T22:00:11.495Z,17.80
2023-02-27T22:02:39.476Z,16.77
2023-02-27T22:05:07.121Z,14.48
2023-02-27T22:07:34.019Z,19.10
2023-02-27T22:10:00.822Z,14.90
2023-02-27T22:12:27.825Z,11.63
2023-02-27T22:14:55.002Z,11.45
2023-02-27T22:17:21.894Z,10.80
2023-02-27T22:19:48.696Z,12.82
2023-02-27T22:22:15.528Z,12.68
2023-02-27T22:24:42.363Z,16.98
2023-02-27T22:27:09.453Z,17.80
2023-02-27T22:29:38.538Z,16.05
2023-02-27T22:32:06.653Z,14.73
2023-02-27T22:34:33.482Z,12.15
2023-02-27T22:37:00.619Z,13.45
2023-02-27T22:39:27.361Z,9.88
2023-02-27T22:41:56.484Z,11.27
2023-02-27T22:44:23.880Z,12.52
2023-02-27T22:46:50.902Z,9.35
2023-02-27T22:49:20.934Z,10.98
2023-02-27T22:51:50.767Z,13.88
2023-02-27T22:54:20.386Z,13.35
2023-02-27T22:56:50.237Z,11.30
2023-02-27T22:59:17.168Z,14.85
2023-02-27T23:01:44.048Z,11.10
2023-02-27T23:04:12.203Z,10.13
2023-02-27T23:06:40.664Z,12.00
2023-02-27T23:09:11.284Z,11.50
2023-02-27T23:11:38.416Z,17.40
2023-02-27T23:14:05.379Z,14.18
2023-02-27T23:16:32.511Z,10.23
2023-02-27T23:19:00.340Z,9.70
2023-02-27T23:21:34.500Z,11.13
2023-02-27T23:24:06.949Z,10.20
2023-02-27T23:26:38.737Z,9.73
2023-02-27T23:29:06.875Z,15.00
2023-02-27T23:31:35.813Z,8.60
2023-02-27T23:34:06.049Z,9.43
2023-02-27T23:36:34.893Z,8.75
2023-02-27T23:39:05.667Z,7.50
2023-02-27T23:41:33.150Z,8.23
2023-02-27T23:44:18.650Z,8.32
2023-02-27T23:46:45.498Z,7.05
2023-02-27T23:49:12.415Z,6.50
2023-02-27T23:51:39.705Z,6.57
2023-02-27T23:54:06.549Z,6.20
2023-02-27T23:56:34.300Z,5.93
2023-02-27T23:59:03.831Z,6.30
